createdAt,value
2023-03-05T00:01:01.502Z,88.5
2023-03-05T00:02:15.794Z,88.4
2023-03-05T00:03:30.200Z,88.2
2023-03-05T00:04:44.516Z,88.3
2023-03-05T00:05:58.797Z,88
2023-03-05T00:07:13.074Z,87.9
2023-03-05T00:08:27.497Z,88
2023-03-05T00:09:41.807Z,88.3
2023-03-05T00:10:56.088Z,88.3
2023-03-05T00:12:10.368Z,88.3
2023-03-05T00:13:24.781Z,88
2023-03-05T00:14:39.107Z,88.2
2023-03-05T00:15:53.381Z,88.3
2023-03-05T00:17:07.657Z,88.4
2023-03-05T00:18:22.081Z,88.4
2023-03-05T00:19:36.390Z,88.2
2023-03-05T00:20:50.677Z,88.3
2023-03-05T00:22:04.950Z,88.4
2023-03-05T00:23:19.358Z,88.4
2023-03-05T00:24:33.694Z,88.3
2023-03-05T00:25:47.977Z,88.4
2023-03-05T00:27:02.255Z,88.6
2023-03-05T00:29:30.973Z,88.7
2023-03-05T00:30:45.256Z,89
2023-03-05T00:31:59.611Z,89
2023-03-05T00:33:14.007Z,89.1
2023-03-05T00:34:28.351Z,89.3
2023-03-05T00:35:41.694Z,89.3
2023-03-05T00:36:55.968Z,89.3
2023-03-05T00:38:10.383Z,89.3
2023-03-05T00:39:24.700Z,88.9
2023-03-05T00:40:38.987Z,89.1
2023-03-05T00:41:53.272Z,89.5
2023-03-05T00:43:07.680Z,89.5
2023-03-05T00:44:22.001Z,89.3
2023-03-05T00:45:36.278Z,89.6
2023-03-05T00:46:50.561Z,89.7
2023-03-05T00:48:04.970Z,89.5
2023-03-05T00:49:19.299Z,89.6
2023-03-05T00:50:33.569Z,89.7
2023-03-05T00:51:47.848Z,89.8
2023-03-05T00:53:02.253Z,89.8
2023-03-05T00:54:16.574Z,90
2023-03-05T00:55:30.871Z,89.9
2023-03-05T00:56:45.136Z,90.3
2023-03-05T00:57:59.551Z,90.2
2023-03-05T00:59:13.881Z,90.1
2023-03-05T01:00:28.147Z,90
2023-03-05T01:01:42.444Z,90
2023-03-05T01:04:11.165Z,90.5
2023-03-05T01:05:25.442Z,90.7
2023-03-05T01:06:39.785Z,90.8
2023-03-05T01:07:54.201Z,90.8
2023-03-05T01:09:08.520Z,90.6
2023-03-05T01:10:21.881Z,90.9
2023-03-05T01:11:36.167Z,91
2023-03-05T01:12:50.562Z,90.8
2023-03-05T01:14:04.883Z,90.7
2023-03-05T01:15:19.163Z,90.7
2023-03-05T01:16:33.442Z,90.7
2023-03-05T01:17:47.855Z,91
2023-03-05T01:19:02.186Z,91.1
2023-03-05T01:20:16.468Z,90.9
2023-03-05T01:22:45.149Z,90.8
2023-03-05T01:23:59.477Z,90.8
2023-03-05T01:25:13.747Z,90.9
2023-03-05T01:26:28.032Z,90.9
2023-03-05T01:27:42.449Z,91
2023-03-05T01:28:56.767Z,91
2023-03-05T01:30:11.055Z,90.8
2023-03-05T01:31:25.335Z,90.9
2023-03-05T01:32:39.727Z,90.9
2023-03-05T01:33:54.059Z,91
2023-03-05T01:35:08.350Z,91
2023-03-05T01:36:22.619Z,91
2023-03-05T01:37:37.025Z,90.9
2023-03-05T01:38:51.348Z,91
2023-03-05T01:40:05.633Z,91.5
2023-03-05T01:41:19.976Z,91.4
2023-03-05T01:42:34.376Z,91.3
2023-03-05T01:43:48.708Z,91.2
2023-03-05T01:45:02.069Z,91.4
2023-03-05T01:46:16.351Z,91.4
2023-03-05T01:48:45.072Z,91.5
2023-03-05T01:49:59.349Z,91.5
2023-03-05T01:51:13.642Z,91.6
2023-03-05T01:52:28.047Z,91.7
2023-03-05T01:53:42.367Z,91.7
2023-03-05T01:54:56.640Z,91.7
2023-03-05T01:56:10.938Z,91.8
2023-03-05T01:57:25.332Z,91.8
2023-03-05T01:58:39.660Z,91.8
2023-03-05T01:59:53.941Z,91.8
2023-03-05T02:01:08.220Z,92
2023-03-05T02:02:22.634Z,92.3
2023-03-05T02:03:36.952Z,92.3
2023-03-05T02:04:51.238Z,92.3
2023-03-05T02:06:05.523Z,92.5
2023-03-05T02:07:19.914Z,92.5
2023-03-05T02:08:34.244Z,92.5
2023-03-05T02:09:48.532Z,92.6
2023-03-05T02:11:02.808Z,92.5
2023-03-05T02:12:17.221Z,92.5
2023-03-05T02:13:31.545Z,92.6
2023-03-05T02:14:45.823Z,92.6
2023-03-05T02:16:00.167Z,92.4
2023-03-05T02:17:14.571Z,92.4
2023-03-05T02:18:28.899Z,92.5
2023-03-05T02:19:42.255Z,92.6
2023-03-05T02:20:56.538Z,92.6
2023-03-05T02:22:10.939Z,92.7
2023-03-05T02:23:25.270Z,92.7
2023-03-05T02:24:39.553Z,92.7
2023-03-05T02:25:53.824Z,92.6
2023-03-05T02:27:08.235Z,92.6
2023-03-05T02:28:22.556Z,92.7
2023-03-05T02:29:36.825Z,92.8
2023-03-05T02:30:51.112Z,92.8
2023-03-05T02:32:05.527Z,92.9
2023-03-05T02:33:19.846Z,92.8
2023-03-05T02:34:34.124Z,92.8
2023-03-05T02:35:48.411Z,92.9
2023-03-05T02:37:02.813Z,92.9
2023-03-05T02:38:17.138Z,92.9
2023-03-05T02:39:31.422Z,92.9
2023-03-05T02:40:45.700Z,93.1
2023-03-05T02:42:00.101Z,93
2023-03-05T02:43:14.435Z,93.1
2023-03-05T02:44:28.719Z,93.2
2023-03-05T02:45:42.994Z,93.3
2023-03-05T02:46:57.410Z,93.4
2023-03-05T02:48:11.730Z,93.4
2023-03-05T02:49:26.006Z,93.3
2023-03-05T02:50:40.352Z,93.4
2023-03-05T02:51:54.751Z,93.4
2023-03-05T02:53:09.088Z,93.4
2023-03-05T02:54:22.439Z,93.3
2023-03-05T02:56:51.132Z,93.6
2023-03-05T02:58:05.451Z,93.6
2023-03-05T02:59:19.729Z,93.8
2023-03-05T03:00:34.006Z,93.6
2023-03-05T03:01:48.427Z,93.6
2023-03-05T03:03:02.743Z,93.6
2023-03-05T03:04:17.013Z,93.8
2023-03-05T03:05:31.299Z,93.8
2023-03-05T03:06:45.717Z,93.6
2023-03-05T03:09:14.314Z,93.8
2023-03-05T03:10:28.599Z,93.8
2023-03-05T03:11:42.992Z,94
2023-03-05T03:12:57.327Z,93.9
2023-03-05T03:14:11.611Z,94
2023-03-05T03:15:25.894Z,94
2023-03-05T03:16:40.290Z,94
2023-03-05T03:17:54.000Z,94
2023-03-05T03:19:08.888Z,94
2023-03-05T03:20:23.186Z,94.2
2023-03-05T03:21:37.585Z,94.2
2023-03-05T03:22:51.900Z,94.2
2023-03-05T03:24:06.198Z,94.1
2023-03-05T03:25:20.525Z,93.8
2023-03-05T03:26:34.945Z,94
2023-03-05T03:27:49.283Z,93.8
2023-03-05T03:29:03.605Z,93.5
2023-03-05T03:30:16.971Z,93.6
2023-03-05T03:31:31.361Z,93.6
2023-03-05T03:32:45.696Z,93.8
2023-03-05T03:33:59.975Z,94
2023-03-05T03:35:14.250Z,94
2023-03-05T03:36:28.657Z,94.1
2023-03-05T03:37:42.989Z,94.1
2023-03-05T03:38:57.262Z,94.1
2023-03-05T03:40:11.548Z,94.3
2023-03-05T03:41:25.946Z,94.2
2023-03-05T03:42:40.270Z,94.3
2023-03-05T03:43:54.565Z,94.5
2023-03-05T03:45:08.830Z,94.6
2023-03-05T03:46:23.251Z,94.7
2023-03-05T03:47:37.579Z,94.6
2023-03-05T03:48:51.842Z,94.7
2023-03-05T03:50:06.132Z,94.8
2023-03-05T03:51:20.544Z,94.9
2023-03-05T03:52:34.860Z,94.9
2023-03-05T03:53:49.138Z,94.8
2023-03-05T03:55:03.418Z,95
2023-03-05T03:56:17.834Z,95.3
2023-03-05T03:57:32.150Z,95.3
2023-03-05T03:58:46.437Z,95.3
2023-03-05T04:00:00.709Z,95.3
2023-03-05T04:01:15.174Z,95.4
2023-03-05T04:02:29.512Z,95.6
2023-03-05T04:03:42.873Z,95.6
2023-03-05T04:04:57.158Z,95.4
2023-03-05T04:06:11.551Z,95.4
2023-03-05T04:07:25.889Z,95.5
2023-03-05T04:08:40.159Z,95.6
2023-03-05T04:09:54.439Z,95.5
2023-03-05T04:11:08.854Z,95.5
2023-03-05T04:12:23.172Z,95.6
2023-03-05T04:13:37.450Z,95.6
2023-03-05T04:14:51.728Z,95.7
2023-03-05T04:16:06.145Z,95.7
2023-03-05T04:17:20.459Z,95.7
2023-03-05T04:18:34.754Z,95.5
2023-03-05T04:19:49.024Z,95.5
2023-03-05T04:21:03.429Z,95.3
2023-03-05T04:22:17.760Z,95.3
2023-03-05T04:23:32.039Z,95.3
2023-03-05T04:24:46.310Z,95.3
2023-03-05T04:26:00.716Z,95.4
2023-03-05T04:27:15.048Z,95.4
2023-03-05T04:28:29.335Z,95.4
2023-03-05T04:29:43.616Z,95.4
2023-03-05T04:30:58.012Z,95.4
2023-03-05T04:32:12.333Z,95.5
2023-03-05T04:33:26.623Z,95.5
2023-03-05T04:34:40.970Z,95.5
2023-03-05T04:35:55.369Z,95.6
2023-03-05T04:37:09.707Z,95.6
2023-03-05T04:38:23.069Z,95.7
2023-03-05T04:39:37.344Z,95.7
2023-03-05T04:40:51.743Z,95.7
2023-03-05T04:42:06.083Z,95.7
2023-03-05T04:43:20.347Z,95.8
2023-03-05T04:45:49.039Z,95.9
2023-03-05T04:47:03.361Z,95.9
2023-03-05T04:49:31.934Z,95.9
2023-03-05T04:50:46.327Z,96
2023-03-05T04:52:00.656Z,96
2023-03-05T04:53:14.931Z,95.9
2023-03-05T04:54:29.213Z,96
2023-03-05T04:55:43.629Z,96
2023-03-05T04:58:12.225Z,95.9
2023-03-05T04:59:26.518Z,96
2023-03-05T05:00:40.925Z,96
2023-03-05T05:01:55.243Z,96.1
2023-03-05T05:03:09.527Z,96.2
2023-03-05T05:04:23.799Z,96.3
2023-03-05T05:05:38.204Z,96.3
2023-03-05T05:06:52.526Z,96.3
2023-03-05T05:08:06.817Z,96.3
2023-03-05T05:09:21.159Z,96.4
2023-03-05T05:10:35.557Z,96.5
2023-03-05T05:11:49.895Z,96.8
2023-03-05T05:13:03.249Z,97
2023-03-05T05:14:17.536Z,97.2
2023-03-05T05:15:31.936Z,97.3
2023-03-05T05:16:46.264Z,97.5
2023-03-05T05:18:00.544Z,97.6
2023-03-05T05:19:14.812Z,97.6
2023-03-05T05:20:29.235Z,97.6
2023-03-05T05:21:43.549Z,97.6
2023-03-05T05:22:57.825Z,97.7
2023-03-05T05:24:12.115Z,97.7
2023-03-05T05:25:26.518Z,97.6
2023-03-05T05:26:40.845Z,97.6
2023-03-05T05:27:55.126Z,97.6
2023-03-05T05:29:09.360Z,97.5
2023-03-05T05:30:23.656Z,97.6
2023-03-05T05:31:37.885Z,97.8
2023-03-05T05:32:52.114Z,98
2023-03-05T05:34:06.340Z,98
2023-03-05T05:35:20.633Z,98
2023-03-05T05:36:35.027Z,98.3
2023-03-05T05:37:49.367Z,98.3
2023-03-05T05:39:03.638Z,98.2
2023-03-05T05:40:17.973Z,98.2
2023-03-05T05:41:32.194Z,97.9
2023-03-05T05:42:46.497Z,97.8
2023-03-05T05:44:00.794Z,97.7
2023-03-05T05:45:14.118Z,97.8
2023-03-05T05:46:27.417Z,97.8
2023-03-05T05:47:41.655Z,97.7
2023-03-05T05:48:55.896Z,97.8
2023-03-05T05:50:10.110Z,97.8
2023-03-05T05:51:24.343Z,97.7
2023-03-05T05:52:38.649Z,97.6
2023-03-05T05:53:52.886Z,97.6
2023-03-05T05:55:07.105Z,97.5
2023-03-05T05:56:21.338Z,97.6
2023-03-05T05:57:35.574Z,97.6
2023-03-05T05:58:49.858Z,97.5
2023-03-05T06:00:04.100Z,97.6
2023-03-05T06:01:18.330Z,97.5
2023-03-05T06:02:32.562Z,97.4
2023-03-05T06:03:46.776Z,97.3
2023-03-05T06:05:01.077Z,97.1
2023-03-05T06:06:15.330Z,97
2023-03-05T06:07:29.554Z,96.9
2023-03-05T06:08:43.778Z,96.8
2023-03-05T06:11:12.311Z,96.9
2023-03-05T06:12:26.550Z,97.1
2023-03-05T06:13:40.780Z,97
2023-03-05T06:14:54.992Z,96.9
2023-03-05T06:16:09.234Z,96.8
2023-03-05T06:17:23.589Z,96.7
2023-03-05T06:18:37.867Z,96.6
2023-03-05T06:19:51.169Z,96.5
2023-03-05T06:21:05.396Z,96.4
2023-03-05T06:22:19.688Z,96.6
2023-03-05T06:24:48.169Z,96.7
2023-03-05T06:26:02.385Z,96.7
2023-03-05T06:27:16.616Z,96.7
2023-03-05T06:28:30.912Z,96.7
2023-03-05T06:29:45.149Z,96.7
2023-03-05T06:30:59.384Z,96.7
2023-03-05T06:32:13.599Z,96.8
2023-03-05T06:33:27.829Z,96.8
2023-03-05T06:34:42.154Z,96.8
2023-03-05T06:35:56.377Z,96.7
2023-03-05T06:37:10.598Z,96.5
2023-03-05T06:38:24.833Z,96.5
2023-03-05T06:39:39.053Z,96.8
2023-03-05T06:40:53.347Z,96.8
2023-03-05T06:42:07.590Z,96.7
2023-03-05T06:43:21.829Z,96.9
2023-03-05T06:44:36.043Z,97.4
2023-03-05T06:45:50.278Z,97.6
2023-03-05T06:47:04.579Z,97.8
2023-03-05T06:48:18.815Z,98
2023-03-05T06:49:33.045Z,97.9
2023-03-05T06:50:47.332Z,97.9
2023-03-05T06:52:00.635Z,97.8
2023-03-05T06:53:14.871Z,97.9
2023-03-05T06:54:29.086Z,98
2023-03-05T06:55:43.327Z,98.1
2023-03-05T06:56:57.552Z,98.3
2023-03-05T06:58:11.858Z,98.2
2023-03-05T06:59:26.083Z,98.3
2023-03-05T07:00:40.311Z,98.4
2023-03-05T07:01:54.542Z,98.4
2023-03-05T07:03:08.768Z,98.5
2023-03-05T07:04:23.074Z,98.2
2023-03-05T07:05:37.318Z,98.1
2023-03-05T07:06:51.541Z,98
2023-03-05T07:08:05.770Z,97.9
2023-03-05T07:09:19.995Z,97.8
2023-03-05T07:10:34.289Z,98.1
2023-03-05T07:11:48.528Z,98.2
2023-03-05T07:13:02.769Z,98.2
2023-03-05T07:14:16.991Z,98.1
2023-03-05T07:15:31.211Z,98.3
2023-03-05T07:16:45.524Z,98.3
2023-03-05T07:17:59.748Z,98.5
2023-03-05T07:19:13.986Z,98.5
2023-03-05T07:20:28.209Z,98.3
2023-03-05T07:21:42.443Z,98.6
2023-03-05T07:22:56.803Z,98.6
2023-03-05T07:24:11.082Z,98.6
2023-03-05T07:25:24.373Z,98.7
2023-03-05T07:26:38.601Z,98.8
2023-03-05T07:27:52.890Z,98.8
2023-03-05T07:29:07.143Z,98.9
2023-03-05T07:30:21.377Z,98.5
2023-03-05T07:31:35.591Z,98.5
2023-03-05T07:32:49.828Z,98.5
2023-03-05T07:34:04.123Z,98.4
2023-03-05T07:35:18.370Z,98.5
2023-03-05T07:36:32.583Z,98.7
2023-03-05T07:37:46.815Z,98.9
2023-03-05T07:39:01.039Z,99
2023-03-05T07:40:15.352Z,99.1
2023-03-05T07:41:29.592Z,99.1
2023-03-05T07:42:43.813Z,98.9
2023-03-05T07:43:58.039Z,99
2023-03-05T07:45:12.259Z,99
2023-03-05T07:46:26.562Z,98.6
2023-03-05T07:47:40.797Z,98.4
2023-03-05T07:48:55.033Z,98.5
2023-03-05T07:50:09.252Z,98.5
2023-03-05T07:51:23.486Z,98.6
2023-03-05T07:52:37.785Z,98.1
2023-03-05T07:53:52.021Z,98.4
2023-03-05T07:55:06.261Z,98.4
2023-03-05T07:56:20.540Z,98.4
2023-03-05T07:57:33.844Z,98.3
2023-03-05T08:00:02.311Z,97.1
2023-03-05T08:01:16.525Z,96.7
2023-03-05T08:02:30.749Z,96.3
2023-03-05T08:03:45.053Z,96.2
2023-03-05T08:04:59.292Z,96.2
2023-03-05T08:06:13.515Z,96
2023-03-05T08:07:27.754Z,96.2
2023-03-05T08:08:41.980Z,96.5
2023-03-05T08:09:56.278Z,96.8
2023-03-05T08:11:10.514Z,97
2023-03-05T08:12:24.752Z,97
2023-03-05T08:13:38.970Z,96.9
2023-03-05T08:14:53.190Z,96.8
2023-03-05T08:16:07.508Z,96.8
2023-03-05T08:17:21.735Z,97
2023-03-05T08:19:50.195Z,97
2023-03-05T08:21:04.425Z,96.7
2023-03-05T08:22:18.711Z,96.6
2023-03-05T08:23:32.966Z,96.8
2023-03-05T08:24:47.194Z,97
2023-03-05T08:26:01.423Z,96.5
2023-03-05T08:28:30.001Z,95.7
2023-03-05T08:29:44.277Z,95.6
2023-03-05T08:30:57.570Z,95.5
2023-03-05T08:32:11.811Z,95.2
2023-03-05T08:33:26.105Z,94.5
2023-03-05T08:34:40.356Z,93.3
2023-03-05T08:35:54.583Z,92.3
2023-03-05T08:37:08.805Z,91.4
2023-03-05T08:38:23.023Z,91.3
2023-03-05T08:39:37.324Z,91.4
2023-03-05T08:40:51.580Z,91.7
2023-03-05T08:42:05.788Z,91.3
2023-03-05T08:43:20.017Z,91.6
2023-03-05T08:44:34.246Z,91.5
2023-03-05T08:45:48.547Z,92.7
2023-03-05T08:47:02.792Z,92.8
2023-03-05T08:48:17.025Z,91.5
2023-03-05T08:49:31.242Z,90.8
2023-03-05T08:50:45.479Z,91.3
2023-03-05T08:51:59.774Z,91
2023-03-05T08:53:14.012Z,90.8
2023-03-05T08:54:28.231Z,91.2
2023-03-05T08:55:42.465Z,90.9
2023-03-05T08:56:56.695Z,90.4
2023-03-05T08:58:10.981Z,90.8
2023-03-05T08:59:25.229Z,91.2
2023-03-05T09:00:39.455Z,89.9
2023-03-05T09:01:53.750Z,90
2023-03-05T09:03:07.095Z,89.6
2023-03-05T09:04:21.373Z,88.7
2023-03-05T09:06:48.883Z,88.2
2023-03-05T09:08:03.188Z,87
2023-03-05T09:09:17.433Z,87.4
2023-03-05T09:10:31.663Z,87.1
2023-03-05T09:11:45.896Z,88.4
2023-03-05T09:13:00.120Z,88
2023-03-05T09:14:14.409Z,86.4
2023-03-05T09:15:28.653Z,87.6
2023-03-05T09:17:57.099Z,87.8
2023-03-05T09:19:11.331Z,87.4
2023-03-05T09:20:25.635Z,86.9
2023-03-05T09:21:39.883Z,86.4
2023-03-05T09:22:54.108Z,87.1
2023-03-05T09:24:08.319Z,87.9
2023-03-05T09:25:22.545Z,87.6
2023-03-05T09:26:36.843Z,87.7
2023-03-05T09:27:51.086Z,87.6
2023-03-05T09:29:05.318Z,85.3
2023-03-05T09:30:19.544Z,83.8
2023-03-05T09:31:33.771Z,83.6
2023-03-05T09:32:48.070Z,83.5
2023-03-05T09:34:02.314Z,83.6
2023-03-05T09:35:16.534Z,83.8
2023-03-05T09:36:30.830Z,83.2
2023-03-05T09:37:45.110Z,83.9
2023-03-05T09:38:59.405Z,82.5
2023-03-05T09:40:13.690Z,83
2023-03-05T09:41:28.057Z,83.4
2023-03-05T09:42:42.277Z,83.1
2023-03-05T09:43:56.519Z,82.6
2023-03-05T09:45:10.813Z,84
2023-03-05T09:46:25.048Z,83.3
2023-03-05T09:47:39.289Z,82.4
2023-03-05T09:48:53.505Z,83.6
2023-03-05T09:50:07.728Z,81.9
2023-03-05T09:51:22.040Z,81
2023-03-05T09:52:36.277Z,80.6
2023-03-05T09:56:18.949Z,81.3
2023-03-05T09:57:33.260Z,79.5
2023-03-05T09:58:47.488Z,78.9
2023-03-05T10:00:01.724Z,79.1
2023-03-05T10:01:15.943Z,80.2
2023-03-05T10:02:30.170Z,81.2
2023-03-05T10:03:44.467Z,80.7
2023-03-05T10:04:58.714Z,79.9
2023-03-05T10:06:12.947Z,80.5
2023-03-05T10:07:27.170Z,82
2023-03-05T10:08:41.383Z,82.8
2023-03-05T10:09:55.697Z,81.2
2023-03-05T10:11:09.000Z,80.6
2023-03-05T10:12:24.211Z,80.4
2023-03-05T10:13:37.580Z,78.5
2023-03-05T10:14:51.878Z,77.3
2023-03-05T10:16:06.160Z,74.9
2023-03-05T10:17:19.459Z,72.8
2023-03-05T10:18:33.672Z,70.2
2023-03-05T10:19:47.980Z,68.5
2023-03-05T10:21:02.210Z,70.5
2023-03-05T10:22:16.446Z,71.6
2023-03-05T10:23:30.679Z,72.5
2023-03-05T10:24:44.901Z,73.2
2023-03-05T10:25:59.196Z,73.9
2023-03-05T10:27:13.434Z,74.8
2023-03-05T10:28:27.663Z,74.1
2023-03-05T10:29:41.887Z,71.6
2023-03-05T10:30:56.114Z,72.1
2023-03-05T10:32:10.424Z,70.7
2023-03-05T10:33:24.659Z,70.3
2023-03-05T10:34:38.881Z,69.3
2023-03-05T10:35:53.111Z,66.4
2023-03-05T10:37:07.340Z,67.7
2023-03-05T10:38:21.630Z,64.5
2023-03-05T10:39:35.871Z,65.4
2023-03-05T10:40:50.103Z,66.1
2023-03-05T10:42:04.324Z,65.9
2023-03-05T10:43:18.564Z,63.3
2023-03-05T10:44:32.856Z,65.6
2023-03-05T10:45:47.098Z,64.5
2023-03-05T10:47:01.330Z,63.4
2023-03-05T10:48:15.613Z,61.9
2023-03-05T10:49:28.935Z,61.9
2023-03-05T10:50:43.229Z,62.6
2023-03-05T10:51:57.509Z,62
2023-03-05T10:53:10.793Z,64.2
2023-03-05T10:54:25.102Z,64.7
2023-03-05T10:55:39.345Z,67.4
2023-03-05T10:56:53.577Z,70.3
2023-03-05T10:58:07.795Z,71.3
2023-03-05T10:59:22.016Z,71.8
2023-03-05T11:00:36.325Z,72.9
2023-03-05T11:01:50.566Z,73.7
2023-03-05T11:03:04.786Z,74.2
2023-03-05T11:04:19.004Z,71.6
2023-03-05T11:05:33.234Z,72
2023-03-05T11:06:47.537Z,71.9
2023-03-05T11:08:01.777Z,71.4
2023-03-05T11:09:16.013Z,71.7
2023-03-05T11:10:30.230Z,69.8
2023-03-05T11:11:44.463Z,70.5
2023-03-05T11:12:58.761Z,69.6
2023-03-05T11:14:13.003Z,69.4
2023-03-05T11:15:27.219Z,68.5
2023-03-05T11:16:41.456Z,67.8
2023-03-05T11:17:55.672Z,64.2
2023-03-05T11:19:09.985Z,63.9
2023-03-05T11:20:24.209Z,63.9
2023-03-05T11:21:38.448Z,63.5
2023-03-05T11:22:52.671Z,62
2023-03-05T11:24:06.951Z,59.6
2023-03-05T11:25:21.258Z,58.3
2023-03-05T11:26:35.533Z,58.7
2023-03-05T11:27:48.838Z,61.2
2023-03-05T11:29:03.058Z,62.5
2023-03-05T11:30:17.353Z,63.4
2023-03-05T11:31:31.594Z,63.9
2023-03-05T11:32:45.828Z,66.5
2023-03-05T11:34:00.047Z,67.7
2023-03-05T11:35:14.273Z,68.8
2023-03-05T11:36:28.580Z,69.9
2023-03-05T11:37:42.816Z,70.7
2023-03-05T11:38:57.052Z,70.4
2023-03-05T11:40:11.272Z,70.4
2023-03-05T11:41:25.497Z,71.1
2023-03-05T11:42:39.789Z,71.3
2023-03-05T11:43:54.047Z,70.9
2023-03-05T11:45:08.274Z,69.2
2023-03-05T11:46:22.497Z,68.3
2023-03-05T11:47:36.710Z,68
2023-03-05T11:48:51.010Z,64.7
2023-03-05T11:50:05.260Z,61.9
2023-03-05T11:51:19.491Z,62.9
2023-03-05T11:52:33.706Z,62.5
2023-03-05T11:55:02.230Z,61
2023-03-05T11:56:16.474Z,58.5
2023-03-05T11:57:30.699Z,57.9
2023-03-05T11:58:44.981Z,57.2
2023-03-05T11:59:58.282Z,55.5
2023-03-05T12:01:12.516Z,56.6
2023-03-05T12:02:26.742Z,55.2
2023-03-05T12:03:40.969Z,54.2
2023-03-05T12:04:55.194Z,58
2023-03-05T12:06:09.000Z,60.6
2023-03-05T12:07:23.740Z,61.2
2023-03-05T12:08:37.963Z,62.5
2023-03-05T12:09:52.196Z,62.6
2023-03-05T12:11:06.412Z,63
2023-03-05T12:12:20.730Z,63.6
2023-03-05T12:13:34.965Z,63.9
2023-03-05T12:14:49.187Z,64.3
2023-03-05T12:16:03.417Z,66.1
2023-03-05T12:17:17.647Z,66.4
2023-03-05T12:18:31.935Z,67
2023-03-05T12:19:46.183Z,66.9
2023-03-05T12:21:00.411Z,66.8
2023-03-05T12:22:14.632Z,67.4
2023-03-05T12:24:43.160Z,66.1
2023-03-05T12:25:57.406Z,66.5
2023-03-05T12:27:11.619Z,66.4
2023-03-05T12:28:25.852Z,66.6
2023-03-05T12:29:40.075Z,66.6
2023-03-05T12:30:54.432Z,65.6
2023-03-05T12:32:08.716Z,65.8
2023-03-05T12:34:36.250Z,63.6
2023-03-05T12:35:50.553Z,61.1
2023-03-05T12:37:04.788Z,60.2
2023-03-05T12:38:19.008Z,59.4
2023-03-05T12:39:33.232Z,60.7
2023-03-05T12:40:47.467Z,62.9
2023-03-05T12:42:01.774Z,62.8
2023-03-05T12:43:16.003Z,64.7
2023-03-05T12:44:30.237Z,65.4
2023-03-05T12:45:44.455Z,66.5
2023-03-05T12:46:58.689Z,66.7
2023-03-05T12:48:12.987Z,66.9
2023-03-05T12:49:27.218Z,67.2
2023-03-05T12:50:41.455Z,67.4
2023-03-05T12:51:55.673Z,67.8
2023-03-05T12:53:09.904Z,67
2023-03-05T12:54:24.212Z,67.9
2023-03-05T12:55:38.453Z,68.9
2023-03-05T12:56:52.674Z,67.6
2023-03-05T12:59:21.123Z,66.3
2023-03-05T13:00:35.418Z,67
2023-03-05T13:01:49.659Z,67
2023-03-05T13:03:03.893Z,66.7
2023-03-05T13:04:18.171Z,64.8
2023-03-05T13:05:31.519Z,63.9
2023-03-05T13:06:45.784Z,62.6
2023-03-05T13:07:59.081Z,63.3
2023-03-05T13:09:13.313Z,62.4
2023-03-05T13:10:27.619Z,60.6
2023-03-05T13:11:41.855Z,61.1
2023-03-05T13:12:56.089Z,61.7
2023-03-05T13:14:10.311Z,59.6
2023-03-05T13:15:24.538Z,58.5
2023-03-05T13:16:38.831Z,58.6
2023-03-05T13:17:53.073Z,59
2023-03-05T13:19:07.297Z,57.9
2023-03-05T13:20:21.537Z,56.8
2023-03-05T13:21:35.744Z,56.7
2023-03-05T13:22:50.054Z,57.9
2023-03-05T13:24:04.285Z,59.4
2023-03-05T13:25:18.529Z,60.4
2023-03-05T13:26:32.740Z,60.8
2023-03-05T13:27:46.965Z,61.3
2023-03-05T13:29:01.283Z,61.6
2023-03-05T13:30:15.516Z,62.3
2023-03-05T13:31:29.737Z,62.9
2023-03-05T13:32:43.967Z,63.9
2023-03-05T13:33:58.182Z,63.7
2023-03-05T13:35:12.485Z,64.8
2023-03-05T13:36:26.723Z,64.8
2023-03-05T13:37:40.960Z,64.8
2023-03-05T13:38:55.254Z,65
2023-03-05T13:40:08.581Z,65.6
2023-03-05T13:41:22.869Z,65.8
2023-03-05T13:42:36.217Z,66.3
2023-03-05T13:43:49.564Z,67.1
2023-03-05T13:45:03.846Z,67.5
2023-03-05T13:46:17.140Z,66
2023-03-05T13:47:31.360Z,65.3
2023-03-05T13:48:45.655Z,63.9
2023-03-05T13:49:59.909Z,64.7
2023-03-05T13:51:14.129Z,63.3
2023-03-05T13:52:28.346Z,62.7
2023-03-05T13:53:42.584Z,63.4
2023-03-05T13:54:56.878Z,62.2
2023-03-05T13:56:11.119Z,61.7
2023-03-05T13:57:25.342Z,60.7
2023-03-05T13:58:39.573Z,61.9
2023-03-05T14:01:08.099Z,62.2
2023-03-05T14:02:22.346Z,61.8
2023-03-05T14:03:36.574Z,61.8
2023-03-05T14:04:50.798Z,62
2023-03-05T14:06:05.019Z,61.5
2023-03-05T14:07:19.316Z,61.2
2023-03-05T14:08:33.558Z,61.9
2023-03-05T14:09:47.790Z,62
2023-03-05T14:11:02.007Z,60.7
2023-03-05T14:12:16.251Z,60.9
2023-03-05T14:13:30.543Z,60.4
2023-03-05T14:14:44.778Z,60.9
2023-03-05T14:15:59.015Z,63
2023-03-05T14:17:13.289Z,61.3
2023-03-05T14:18:26.637Z,59.1
2023-03-05T14:19:40.904Z,58.4
2023-03-05T14:20:54.211Z,58.6
2023-03-05T14:22:08.442Z,58.5
2023-03-05T14:23:22.727Z,59.6
2023-03-05T14:24:36.981Z,59.6
2023-03-05T14:25:51.201Z,59.6
2023-03-05T14:27:05.434Z,61
2023-03-05T14:28:19.654Z,60.6
2023-03-05T14:30:48.185Z,61
2023-03-05T14:32:02.426Z,62
2023-03-05T14:33:16.648Z,62.4
2023-03-05T14:34:30.868Z,62.7
2023-03-05T14:35:45.180Z,62.9
2023-03-05T14:36:59.424Z,62.6
2023-03-05T14:38:13.633Z,61.4
2023-03-05T14:39:27.862Z,61.4
2023-03-05T14:40:42.098Z,61.3
2023-03-05T14:41:56.399Z,61.8
2023-03-05T14:43:10.645Z,62.5
2023-03-05T14:44:24.864Z,63.2
2023-03-05T14:45:39.082Z,63.1
2023-03-05T14:46:53.316Z,61.5
2023-03-05T14:48:07.621Z,61.5
2023-03-05T14:49:21.849Z,62.4
2023-03-05T14:50:36.082Z,60.5
2023-03-05T14:51:50.367Z,61.5
2023-03-05T14:53:03.710Z,61.4
2023-03-05T14:54:17.993Z,60.6
2023-03-05T14:55:31.269Z,60.4
2023-03-05T14:56:45.508Z,59.7
2023-03-05T14:57:59.810Z,60.5
2023-03-05T14:59:14.054Z,60.4
2023-03-05T15:00:28.276Z,60.1
2023-03-05T15:01:42.623Z,61.4
2023-03-05T15:02:56.838Z,60.6
2023-03-05T15:04:11.150Z,60.6
2023-03-05T15:05:25.392Z,60.6
2023-03-05T15:06:39.615Z,60.5
2023-03-05T15:07:53.848Z,61.5
2023-03-05T15:09:08.068Z,61.4
2023-03-05T15:10:22.377Z,61.8
2023-03-05T15:11:36.602Z,62.7
2023-03-05T15:12:50.839Z,62.1
2023-03-05T15:14:05.068Z,61.4
2023-03-05T15:15:19.287Z,61.2
2023-03-05T15:16:33.590Z,60.4
2023-03-05T15:17:47.820Z,61
2023-03-05T15:19:02.059Z,61.4
2023-03-05T15:20:16.275Z,61.5
2023-03-05T15:21:30.649Z,61.5
2023-03-05T15:22:44.957Z,63.1
2023-03-05T15:23:59.195Z,62.8
2023-03-05T15:25:13.425Z,62.2
2023-03-05T15:26:27.649Z,62
2023-03-05T15:27:41.862Z,62.3
2023-03-05T15:28:56.177Z,63.2
2023-03-05T15:30:10.402Z,62.2
2023-03-05T15:32:38.856Z,63.2
2023-03-05T15:33:53.086Z,63.8
2023-03-05T15:35:07.400Z,62.2
2023-03-05T15:36:21.623Z,62.7
2023-03-05T15:37:35.854Z,62
2023-03-05T15:38:50.081Z,60.9
2023-03-05T15:40:04.313Z,62.5
2023-03-05T15:41:18.618Z,63.2
2023-03-05T15:42:32.844Z,61.7
2023-03-05T15:43:47.087Z,61.3
2023-03-05T15:45:01.309Z,61.5
2023-03-05T15:46:15.526Z,61
2023-03-05T15:47:29.824Z,61.4
2023-03-05T15:48:44.064Z,61.7
2023-03-05T15:49:58.293Z,62
2023-03-05T15:51:12.519Z,61.5
2023-03-05T15:52:26.809Z,61.6
2023-03-05T15:53:41.115Z,60.5
2023-03-05T15:54:55.385Z,60.7
2023-03-05T15:56:09.674Z,60.7
2023-03-05T15:58:37.274Z,62
2023-03-05T15:59:51.517Z,62.5
2023-03-05T16:01:05.737Z,62.5
2023-03-05T16:02:19.969Z,62.4
2023-03-05T16:03:34.182Z,62
2023-03-05T16:04:48.486Z,62.8
2023-03-05T16:06:02.728Z,62.7
2023-03-05T16:07:16.966Z,63.5
2023-03-05T16:08:31.305Z,62.4
2023-03-05T16:09:45.534Z,62.5
2023-03-05T16:10:59.825Z,62.1
2023-03-05T16:12:14.072Z,61.9
2023-03-05T16:13:28.309Z,62.8
2023-03-05T16:14:42.530Z,63.2
2023-03-05T16:15:56.762Z,63.3
2023-03-05T16:17:11.063Z,63.6
2023-03-05T16:18:25.290Z,62.9
2023-03-05T16:19:39.519Z,63.9
2023-03-05T16:20:53.743Z,63.8
2023-03-05T16:22:07.970Z,63.5
2023-03-05T16:23:22.268Z,63.9
2023-03-05T16:24:36.507Z,63.6
2023-03-05T16:25:50.748Z,63.8
2023-03-05T16:28:19.187Z,64.5
2023-03-05T16:29:33.499Z,65.1
2023-03-05T16:30:47.740Z,64.6
2023-03-05T16:32:01.968Z,65
2023-03-05T16:33:16.191Z,64.9
2023-03-05T16:34:30.408Z,65
2023-03-05T16:36:58.962Z,65.1
2023-03-05T16:38:13.181Z,64.6
2023-03-05T16:39:27.408Z,65.5
2023-03-05T16:40:41.630Z,65.6
2023-03-05T16:41:55.933Z,65.7
2023-03-05T16:43:10.170Z,66.3
2023-03-05T16:44:24.400Z,67
2023-03-05T16:45:38.624Z,66.9
2023-03-05T16:46:52.854Z,67.5
2023-03-05T16:48:07.154Z,67.2
2023-03-05T16:49:21.390Z,67.4
2023-03-05T16:50:35.622Z,67.5
2023-03-05T16:51:49.849Z,67.4
2023-03-05T16:53:04.073Z,67.4
2023-03-05T16:54:18.433Z,68.7
2023-03-05T16:55:32.718Z,67.9
2023-03-05T16:56:46.002Z,68.2
2023-03-05T16:58:00.238Z,68.5
2023-03-05T17:00:28.775Z,68.2
2023-03-05T17:01:42.999Z,68.8
2023-03-05T17:02:57.237Z,68.5
2023-03-05T17:04:11.458Z,68.2
2023-03-05T17:05:25.758Z,68.3
2023-03-05T17:06:39.991Z,69.1
2023-03-05T17:07:54.217Z,69.1
2023-03-05T17:09:08.447Z,69.4
2023-03-05T17:10:22.673Z,69.6
2023-03-05T17:11:36.979Z,69.6